Time;durP1;ratioP1;P1;durP2;ratioP2;P2;SDS_P1;SDS_P2;PMS_P1;PMS_P2;Temp;Humidity;BMP_temperature;BMP_pressure;BME280_temperature;BME280_humidity;BME280_pressure;Samples;Min_cycle;Max_cycle;Signal;HPM_P1;HPM_P2
2022/06/22 00:01:20;;;;;;;8.57;5.93;;;12.90;99.90;;;;;;5032857;22;20064;-51
2022/06/22 00:03:52;;;;;;;8.02;4.90;;;12.80;99.90;;;;;;4984923;28;20070;-50
2022/06/22 00:06:32;;;;;;;6.03;4.22;;;12.90;99.90;;;;;;4977393;28;20129;-50
2022/06/22 00:08:58;;;;;;;9.98;6.22;;;12.90;99.90;;;;;;4981504;28;20053;-51
2022/06/22 00:11:26;;;;;;;6.32;3.90;;;12.80;99.90;;;;;;4981800;28;20042;-51
2022/06/22 00:13:56;;;;;;;5.50;3.80;;;12.80;99.90;;;;;;4987823;28;20073;-54
2022/06/22 00:16:29;;;;;;;5.95;5.18;;;12.70;99.90;;;;;;5005592;28;20068;-52
2022/06/22 00:18:56;;;;;;;5.85;4.68;;;12.70;99.90;;;;;;4999298;28;20026;-50
2022/06/22 00:21:24;;;;;;;5.72;4.97;;;12.70;99.90;;;;;;5000656;28;20436;-54
2022/06/22 00:23:55;;;;;;;8.73;5.45;;;12.60;99.90;;;;;;5007561;28;20045;-54
2022/06/22 00:26:23;;;;;;;7.47;5.15;;;12.50;99.90;;;;;;4999299;28;20045;-54
2022/06/22 00:28:58;;;;;;;6.95;5.72;;;12.50;99.90;;;;;;4984542;28;20045;-55
2022/06/22 00:31:30;;;;;;;6.63;4.47;;;12.50;99.90;;;;;;4983965;28;20511;-50
2022/06/22 00:34:05;;;;;;;8.00;5.25;;;12.50;99.90;;;;;;4982647;28;20631;-54
2022/06/22 00:36:36;;;;;;;8.82;5.60;;;12.50;99.90;;;;;;4963780;28;20168;-50
2022/06/22 00:39:38;;;;;;;7.60;5.47;;;12.40;99.90;;;;;;4997180;28;20223;-49
2022/06/22 00:42:15;;;;;;;5.40;4.75;;;12.40;99.90;;;;;;4928464;28;20042;-51
2022/06/22 00:44:50;;;;;;;5.97;4.25;;;12.30;99.90;;;;;;4970324;28;20061;-49
2022/06/22 00:47:56;;;;;;;7.40;5.60;;;12.30;99.90;;;;;;4980157;28;21234;-50
2022/06/22 00:50:37;;;;;;;6.70;4.95;;;12.30;99.90;;;;;;4962448;28;20493;-50
2022/06/22 00:53:05;;;;;;;5.63;4.97;;;12.20;99.90;;;;;;4972830;28;20661;-50
2022/06/22 00:55:41;;;;;;;7.03;4.80;;;12.20;99.90;;;;;;4979868;28;20096;-50
2022/06/22 00:58:38;;;;;;;12.98;4.97;;;12.10;99.90;;;;;;4982131;28;20165;-50
2022/06/22 01:01:25;;;;;;;6.07;4.57;;;12.10;99.90;;;;;;4977085;28;20053;-54
2022/06/22 01:04:07;;;;;;;6.10;4.53;;;12.00;99.90;;;;;;4979167;28;20045;-47
2022/06/22 01:06:44;;;;;;;9.40;5.00;;;12.00;99.90;;;;;;4974295;28;20034;-51
2022/06/22 01:09:19;;;;;;;6.97;4.90;;;12.00;99.90;;;;;;4988358;28;20173;-53
2022/06/22 01:12:16;;;;;;;5.03;4.50;;;11.90;99.90;;;;;;4960186;28;20128;-51
2022/06/22 01:14:53;;;;;;;6.93;5.10;;;11.90;99.90;;;;;;4978785;28;20049;-51
2022/06/22 01:17:27;;;;;;;5.68;4.72;;;11.80;99.90;;;;;;4983772;28;20563;-51
2022/06/22 01:20:13;;;;;;;7.50;5.45;;;11.90;99.90;;;;;;4985264;28;20048;-51
2022/06/22 01:23:13;;;;;;;7.47;5.05;;;11.90;99.90;;;;;;4984340;28;20041;-54
2022/06/22 01:26:03;;;;;;;7.05;5.50;;;11.80;99.90;;;;;;4969297;28;20066;-53
2022/06/22 01:28:29;;;;;;;7.93;5.57;;;11.80;99.90;;;;;;4975775;28;20113;-56
2022/06/22 01:31:02;;;;;;;10.52;6.13;;;11.70;99.90;;;;;;4981232;28;20509;-49
2022/06/22 01:33:46;;;;;;;12.27;6.57;;;11.70;99.90;;;;;;4982236;28;20042;-52
2022/06/22 01:36:21;;;;;;;;;;;11.70;99.90;;;;;;4988136;28;20077;-52
2022/06/22 01:38:47;;;;;;;7.63;5.28;;;11.70;99.90;;;;;;4982182;28;20566;-54
2022/06/22 01:41:32;;;;;;;8.50;6.05;;;11.70;99.90;;;;;;4987530;28;20626;-52
2022/06/22 01:44:24;;;;;;;8.75;5.53;;;11.70;99.90;;;;;;4976516;28;20041;-51
2022/06/22 01:47:09;;;;;;;9.18;6.65;;;11.70;99.90;;;;;;4982860;28;20714;-54
2022/06/22 01:49:43;;;;;;;5.93;4.82;;;11.60;99.90;;;;;;4980450;28;20053;-51
2022/06/22 01:52:40;;;;;;;10.70;6.10;;;11.70;99.90;;;;;;4982273;28;20046;-55
2022/06/22 01:55:35;;;;;;;7.65;4.93;;;11.70;99.90;;;;;;4983802;28;20139;-55
2022/06/22 01:58:12;;;;;;;8.00;5.40;;;11.60;99.90;;;;;;4980989;28;20252;-53
2022/06/22 02:00:38;;;;;;;7.10;5.45;;;11.70;99.90;;;;;;4982661;28;20056;-51
2022/06/22 02:03:16;;;;;;;6.80;5.45;;;11.60;99.90;;;;;;4987197;28;20133;-54
2022/06/22 02:08:51;;;;;;;6.95;4.55;;;11.70;99.90;;;;;;4978971;28;20500;-52
2022/06/22 02:11:23;;;;;;;7.60;5.47;;;11.70;99.90;;;;;;4978836;28;20037;-51
2022/06/22 02:14:08;;;;;;;9.43;5.90;;;11.70;99.90;;;;;;4984305;28;20039;-54
2022/06/22 02:17:00;;;;;;;6.78;5.15;;;11.80;99.90;;;;;;4984164;28;20165;-49
2022/06/22 02:19:30;;;;;;;12.10;7.28;;;11.70;99.90;;;;;;4980441;28;20085;-53
2022/06/22 02:21:58;;;;;;;6.78;4.80;;;11.70;99.90;;;;;;4985725;28;20535;-56
2022/06/22 02:24:26;;;;;;;7.68;5.97;;;11.60;99.90;;;;;;4974821;28;20046;-52
2022/06/22 02:26:57;;;;;;;12.10;6.65;;;11.60;99.90;;;;;;4981296;28;20085;-51
2022/06/22 02:29:37;;;;;;;8.98;7.10;;;11.50;99.90;;;;;;4983990;28;20131;-53
2022/06/22 02:32:07;;;;;;;8.73;5.90;;;11.50;99.90;;;;;;4981539;28;22833;-56
2022/06/22 02:34:34;;;;;;;8.48;5.53;;;11.40;99.90;;;;;;4977660;28;20277;-49
2022/06/22 02:37:04;;;;;;;7.05;6.35;;;11.40;99.90;;;;;;4987310;28;20034;-55
2022/06/22 02:39:33;;;;;;;10.02;6.25;;;11.40;99.90;;;;;;4984485;28;20409;-49
2022/06/22 02:45:11;;;;;;;8.82;5.85;;;11.30;99.90;;;;;;4925518;28;20051;-52
2022/06/22 02:47:58;;;;;;;5.75;4.78;;;11.20;99.90;;;;;;4924890;28;20402;-52
2022/06/22 02:50:29;;;;;;;10.30;7.30;;;11.20;99.90;;;;;;4961686;28;20050;-50
2022/06/22 02:53:35;;;;;;;10.23;7.82;;;11.40;99.90;;;;;;4982253;28;20505;-50
2022/06/22 02:56:07;;;;;;;7.97;6.55;;;11.20;99.90;;;;;;4956956;28;20144;-54
2022/06/22 02:58:36;;;;;;;11.07;7.10;;;11.20;99.90;;;;;;4983743;28;20034;-52
2022/06/22 03:01:12;;;;;;;5.15;4.65;;;11.10;99.90;;;;;;4984778;28;20457;-49
2022/06/22 03:03:44;;;;;;;8.30;6.75;;;11.10;99.90;;;;;;4985874;28;20052;-54
2022/06/22 03:06:12;;;;;;;13.25;8.30;;;11.10;99.90;;;;;;4987831;28;20030;-50
2022/06/22 03:08:39;;;;;;;13.32;7.65;;;11.10;99.90;;;;;;4984962;28;20042;-55
2022/06/22 03:11:07;;;;;;;12.88;7.72;;;11.10;99.90;;;;;;4987533;28;20437;-48
2022/06/22 03:13:46;;;;;;;10.65;7.53;;;11.00;99.90;;;;;;4976216;28;20120;-55
2022/06/22 03:16:27;;;;;;;12.40;8.55;;;11.00;99.90;;;;;;4987786;28;20053;-49
2022/06/22 03:18:56;;;;;;;10.98;7.20;;;11.00;99.90;;;;;;4965838;28;20053;-51
2022/06/22 03:21:22;;;;;;;9.50;6.82;;;11.00;99.90;;;;;;4983459;28;20057;-51
2022/06/22 03:24:06;;;;;;;11.23;7.72;;;11.00;99.90;;;;;;4985954;28;20046;-53
2022/06/22 03:26:48;;;;;;;7.60;6.07;;;11.00;99.90;;;;;;4978719;28;20045;-51
2022/06/22 03:29:37;;;;;;;9.07;6.63;;;11.00;99.90;;;;;;4984590;28;20309;-55
2022/06/22 03:32:18;;;;;;;11.20;7.93;;;11.00;99.90;;;;;;4988387;28;20083;-54
2022/06/22 03:34:51;;;;;;;9.60;5.88;;;11.10;99.90;;;;;;4981476;28;20038;-49
2022/06/22 03:37:28;;;;;;;10.00;6.72;;;11.10;99.90;;;;;;4980076;28;20045;-50
2022/06/22 03:39:58;;;;;;;8.45;6.82;;;11.10;99.90;;;;;;4985202;28;20132;-53
2022/06/22 03:42:39;;;;;;;8.35;7.35;;;11.10;99.90;;;;;;4987634;28;20522;-50
2022/06/22 03:45:27;;;;;;;8.82;6.70;;;11.10;99.90;;;;;;4984241;28;20041;-53
2022/06/22 03:48:10;;;;;;;9.77;7.68;;;11.10;99.90;;;;;;4988606;28;20035;-53
2022/06/22 03:50:56;;;;;;;10.07;6.93;;;11.00;99.90;;;;;;4984293;28;20113;-52
2022/06/22 03:53:48;;;;;;;9.55;6.82;;;11.00;99.90;;;;;;4989639;28;20473;-52
2022/06/22 03:56:22;;;;;;;12.13;7.68;;;11.00;99.90;;;;;;4979114;28;20046;-54
2022/06/22 03:58:50;;;;;;;;;;;11.00;99.90;;;;;;4983653;28;20050;-52
2022/06/22 04:01:18;;;;;;;9.15;7.40;;;11.00;99.90;;;;;;4983390;28;19917;-51
2022/06/22 04:03:44;;;;;;;9.23;7.68;;;11.00;99.90;;;;;;4987800;28;20049;-51
2022/06/22 04:06:31;;;;;;;8.55;6.15;;;11.00;99.90;;;;;;4983693;28;20422;-51
2022/06/22 04:08:59;;;;;;;8.93;6.70;;;11.10;99.90;;;;;;4985866;28;20096;-52
2022/06/22 04:11:44;;;;;;;8.48;7.10;;;11.10;99.90;;;;;;4982848;28;20050;-55
2022/06/22 04:14:22;;;;;;;10.25;6.95;;;11.20;99.90;;;;;;4983016;28;20042;-52
2022/06/22 04:16:52;;;;;;;12.50;7.40;;;11.30;99.90;;;;;;4983165;28;20054;-54
2022/06/22 04:19:22;;;;;;;7.57;5.88;;;11.30;99.90;;;;;;4988099;28;20061;-52
2022/06/22 04:22:04;;;;;;;10.00;5.88;;;11.40;99.90;;;;;;4985268;28;20033;-54
2022/06/22 04:24:34;;;;;;;7.93;6.50;;;11.40;99.90;;;;;;4988286;28;20049;-52
2022/06/22 04:27:10;;;;;;;13.45;7.45;;;11.40;99.90;;;;;;4983636;28;20208;-55
2022/06/22 04:29:40;;;;;;;11.40;6.97;;;11.50;99.90;;;;;;4969516;28;21923;-53
2022/06/22 04:32:19;;;;;;;6.13;4.95;;;11.50;99.90;;;;;;4985352;28;20297;-55
2022/06/22 04:34:53;;;;;;;7.97;5.47;;;11.50;99.90;;;;;;4988841;28;20049;-55
2022/06/22 04:37:25;;;;;;;;;;;11.60;99.90;;;;;;4988437;28;20045;-52
2022/06/22 04:40:01;;;;;;;10.68;6.90;;;11.60;99.90;;;;;;4988712;28;19960;-53
2022/06/22 04:42:27;;;;;;;9.48;7.97;;;11.60;99.90;;;;;;4969932;28;20065;-53
2022/06/22 04:44:52;;;;;;;5.65;4.60;;;11.70;99.90;;;;;;4990290;28;20065;-51
2022/06/22 04:47:28;;;;;;;5.97;4.88;;;11.70;99.90;;;;;;4974068;28;20477;-55
2022/06/22 04:50:07;;;;;;;6.97;6.00;;;11.90;99.90;;;;;;4986628;28;20401;-49
2022/06/22 04:52:42;;;;;;;13.18;6.57;;;12.00;99.90;;;;;;4992958;28;20038;-53
2022/06/22 04:55:14;;;;;;;14.88;9.07;;;12.10;99.90;;;;;;4989191;28;20139;-49
2022/06/22 04:57:43;;;;;;;15.77;10.63;;;12.20;99.90;;;;;;4979574;28;20559;-52
2022/06/22 05:00:21;;;;;;;13.57;8.15;;;12.30;99.90;;;;;;4980193;28;20049;-57
2022/06/22 05:02:53;;;;;;;14.43;9.07;;;12.40;99.90;;;;;;4986149;28;20033;-52
2022/06/22 05:05:30;;;;;;;10.88;8.43;;;12.50;99.90;;;;;;4982037;28;20425;-54
2022/06/22 05:08:04;;;;;;;17.85;11.43;;;12.70;99.90;;;;;;4985538;28;20052;-59
2022/06/22 05:11:01;;;;;;;15.05;12.00;;;12.80;99.90;;;;;;4983800;28;20096;-54
2022/06/22 05:13:33;;;;;;;17.92;13.75;;;12.90;99.90;;;;;;4988007;28;20502;-54
2022/06/22 05:16:02;;;;;;;16.73;12.35;;;13.10;99.90;;;;;;4983722;28;20053;-55
2022/06/22 05:18:34;;;;;;;14.18;10.70;;;13.20;99.90;;;;;;4986660;28;20033;-52
2022/06/22 05:21:40;;;;;;;22.90;14.00;;;13.30;99.90;;;;;;4985918;28;20086;-53
2022/06/22 05:24:32;;;;;;;18.80;13.52;;;13.40;99.90;;;;;;4987560;28;20136;-55
2022/06/22 05:27:01;;;;;;;17.48;12.90;;;13.50;99.90;;;;;;4985969;28;20051;-55
2022/06/22 05:29:35;;;;;;;11.40;8.80;;;13.70;99.90;;;;;;4967379;28;20485;-57
2022/06/22 05:32:07;;;;;;;18.63;12.13;;;13.70;99.90;;;;;;4983875;28;20497;-52
2022/06/22 05:34:36;;;;;;;20.13;12.82;;;13.80;99.90;;;;;;4985308;28;20453;-55
2022/06/22 05:37:19;;;;;;;13.90;11.05;;;13.90;99.90;;;;;;4984394;28;20125;-54
2022/06/22 05:39:45;;;;;;;16.85;9.13;;;14.10;99.90;;;;;;4989156;28;20034;-52
2022/06/22 05:42:14;;;;;;;15.93;9.88;;;14.20;99.90;;;;;;4984036;28;20041;-52
2022/06/22 05:44:40;;;;;;;12.60;7.47;;;14.30;99.90;;;;;;4984286;28;20501;-50
2022/06/22 05:47:37;;;;;;;14.82;9.48;;;14.40;99.90;;;;;;4952373;28;20042;-53
2022/06/22 05:50:40;;;;;;;13.50;8.68;;;14.50;99.90;;;;;;4984054;28;20060;-55
2022/06/22 05:53:15;;;;;;;16.20;9.20;;;14.70;99.90;;;;;;4986728;28;20089;-52
2022/06/22 05:56:15;;;;;;;14.88;8.63;;;14.70;99.90;;;;;;4981399;28;20038;-51
2022/06/22 05:59:07;;;;;;;14.98;8.68;;;14.80;99.90;;;;;;4986289;28;20101;-52
2022/06/22 06:01:45;;;;;;;13.38;8.18;;;15.00;99.90;;;;;;5008330;22;20042;-60
2022/06/22 06:04:38;;;;;;;15.13;8.77;;;15.10;99.90;;;;;;5017171;28;20045;-61
2022/06/22 06:07:28;;;;;;;13.30;8.55;;;15.20;99.90;;;;;;5013677;28;20583;-63
2022/06/22 06:09:54;;;;;;;10.88;8.63;;;15.30;99.90;;;;;;5011815;28;20470;-61
2022/06/22 06:12:39;;;;;;;11.20;8.65;;;15.40;99.90;;;;;;5016020;28;20037;-61
2022/06/22 06:15:06;;;;;;;12.73;6.57;;;15.50;99.90;;;;;;5016858;28;20064;-62
2022/06/22 06:17:39;;;;;;;12.25;6.63;;;15.60;99.90;;;;;;5014944;28;20100;-63
2022/06/22 06:20:11;;;;;;;10.77;7.50;;;15.60;99.90;;;;;;5013290;28;20037;-61
2022/06/22 06:22:37;;;;;;;13.00;6.38;;;15.70;99.90;;;;;;5011573;28;20136;-63
2022/06/22 06:28:10;;;;;;;9.07;6.05;;;15.80;99.90;;;;;;5011789;28;20053;-62
2022/06/22 06:30:46;;;;;;;8.20;5.27;;;15.90;99.90;;;;;;5003952;28;20069;-63
2022/06/22 06:33:20;;;;;;;6.28;4.45;;;16.10;99.90;;;;;;5008005;28;20791;-63
2022/06/22 06:35:52;;;;;;;6.93;4.32;;;16.20;99.90;;;;;;5004865;28;20046;-61
2022/06/22 06:38:37;;;;;;;8.80;4.57;;;16.30;99.90;;;;;;5016460;28;20049;-61
2022/06/22 06:41:15;;;;;;;9.10;5.75;;;16.40;99.90;;;;;;5015208;28;20500;-62
2022/06/22 06:44:00;;;;;;;11.43;5.60;;;16.50;99.90;;;;;;5006756;28;20468;-64
2022/06/22 06:46:38;;;;;;;16.33;9.15;;;16.60;99.90;;;;;;4999970;28;20103;-61
2022/06/22 06:49:22;;;;;;;12.73;7.63;;;16.70;99.90;;;;;;5004267;28;20037;-61
2022/06/22 06:52:03;;;;;;;10.77;6.28;;;16.80;99.90;;;;;;4999288;28;20050;-62
2022/06/22 06:54:35;;;;;;;9.77;7.15;;;16.90;99.90;;;;;;5007688;28;20629;-61
2022/06/22 06:57:07;;;;;;;7.45;6.63;;;16.90;99.90;;;;;;5001710;28;20424;-62
2022/06/22 06:59:34;;;;;;;11.35;6.90;;;17.10;99.90;;;;;;5008768;28;20065;-61
2022/06/22 07:02:11;;;;;;;15.50;6.82;;;17.10;99.90;;;;;;4998301;28;20041;-63
2022/06/22 07:04:36;;;;;;;11.90;7.18;;;17.20;99.90;;;;;;5008732;28;20564;-62
2022/06/22 07:07:24;;;;;;;10.10;6.40;;;17.20;99.90;;;;;;5008085;28;20033;-63
2022/06/22 07:09:53;;;;;;;10.95;6.88;;;17.30;99.90;;;;;;5006600;28;20131;-63
2022/06/22 07:12:30;;;;;;;9.82;5.82;;;17.40;99.90;;;;;;5023171;28;20049;-63
2022/06/22 07:15:00;;;;;;;9.43;4.20;;;17.50;99.90;;;;;;5004453;28;20468;-63
2022/06/22 07:17:27;;;;;;;7.35;4.57;;;17.60;99.90;;;;;;5015387;28;20488;-62
2022/06/22 07:20:01;;;;;;;10.48;5.90;;;17.70;99.90;;;;;;5017667;28;20054;-62
2022/06/22 07:22:39;;;;;;;9.70;5.30;;;17.80;99.90;;;;;;5019669;28;20037;-61
2022/06/22 07:25:17;;;;;;;11.35;6.05;;;17.90;99.90;;;;;;5022746;28;20037;-62
2022/06/22 07:27:54;;;;;;;7.97;4.70;;;18.00;99.90;;;;;;5022341;28;20381;-61
2022/06/22 07:30:28;;;;;;;11.48;6.32;;;18.10;99.90;;;;;;5021860;28;20049;-60
2022/06/22 07:33:01;;;;;;;7.53;5.28;;;18.20;99.90;;;;;;5030088;28;20221;-59
2022/06/22 07:35:30;;;;;;;9.70;5.93;;;18.10;99.90;;;;;;5026281;28;20400;-61
2022/06/22 07:37:55;;;;;;;12.27;6.75;;;18.00;99.90;;;;;;5023337;28;20436;-61
2022/06/22 07:40:27;;;;;;;8.18;5.22;;;18.10;99.90;;;;;;5029550;28;20141;-61
2022/06/22 07:42:55;;;;;;;8.98;5.97;;;18.30;99.90;;;;;;5007648;28;20049;-60
2022/06/22 07:45:23;;;;;;;9.82;6.32;;;18.50;99.90;;;;;;5024974;28;20061;-61
2022/06/22 07:48:05;;;;;;;8.85;5.85;;;18.70;99.90;;;;;;5019663;28;20083;-59
2022/06/22 07:50:48;;;;;;;10.82;6.90;;;18.70;99.90;;;;;;5013696;28;20045;-56
2022/06/22 07:53:32;;;;;;;12.40;6.60;;;18.80;99.90;;;;;;5016322;28;20041;-59
2022/06/22 07:56:12;;;;;;;10.73;6.25;;;18.70;99.90;;;;;;5032779;28;20047;-58
2022/06/22 07:58:55;;;;;;;9.75;5.32;;;18.80;99.90;;;;;;5032088;28;20052;-56
2022/06/22 08:01:29;;;;;;;12.85;5.88;;;18.90;99.90;;;;;;5032357;28;20088;-60
2022/06/22 08:04:36;;;;;;;9.93;5.25;;;19.00;99.90;;;;;;5031130;28;20049;-58
2022/06/22 08:07:14;;;;;;;8.77;4.85;;;19.10;99.90;;;;;;5031924;28;20484;-60
2022/06/22 08:09:53;;;;;;;11.35;5.18;;;19.30;99.90;;;;;;5023669;28;20544;-58
2022/06/22 08:12:30;;;;;;;8.65;4.50;;;19.40;99.90;;;;;;5016884;28;20088;-58
2022/06/22 08:14:56;;;;;;;7.22;4.45;;;19.50;99.90;;;;;;5013956;28;20085;-61
2022/06/22 08:17:50;;;;;;;8.48;4.57;;;19.50;99.90;;;;;;5034592;28;20034;-60
2022/06/22 08:20:20;;;;;;;6.35;3.75;;;19.60;99.90;;;;;;5029624;28;20523;-60
2022/06/22 08:22:48;;;;;;;8.75;3.35;;;19.70;99.90;;;;;;5020645;28;20034;-57
2022/06/22 08:25:18;;;;;;;5.97;2.72;;;19.80;99.90;;;;;;5015416;28;20064;-57
2022/06/22 08:27:45;;;;;;;8.18;3.95;;;19.80;99.90;;;;;;5023388;28;20029;-58
2022/06/22 08:30:13;;;;;;;8.00;4.05;;;20.00;99.80;;;;;;5019415;28;20034;-60
2022/06/22 08:32:44;;;;;;;7.07;3.75;;;20.10;98.70;;;;;;5026221;28;20745;-57
2022/06/22 08:35:22;;;;;;;9.43;3.90;;;20.20;99.20;;;;;;5020035;28;20083;-57
2022/06/22 08:38:03;;;;;;;6.00;3.15;;;20.30;99.10;;;;;;5020926;28;20084;-57
2022/06/22 08:40:47;;;;;;;6.55;3.38;;;20.40;99.10;;;;;;5020477;28;20090;-60
2022/06/22 08:43:34;;;;;;;7.57;4.40;;;20.40;97.80;;;;;;5023983;28;20068;-57
2022/06/22 08:46:07;;;;;;;13.93;5.15;;;20.40;97.80;;;;;;5015431;28;20049;-55
2022/06/22 08:48:40;;;;;;;7.47;3.97;;;20.40;97.60;;;;;;5012226;28;20072;-57
2022/06/22 08:51:18;;;;;;;12.20;4.45;;;20.50;98.40;;;;;;5013864;28;20044;-60
2022/06/22 08:54:05;;;;;;;9.57;4.38;;;20.70;98.50;;;;;;5011609;28;20040;-57
2022/06/22 08:56:49;;;;;;;7.93;3.65;;;20.80;98.30;;;;;;5007417;28;20092;-60
2022/06/22 08:59:18;;;;;;;9.63;3.80;;;20.90;97.50;;;;;;5012300;28;20037;-58
2022/06/22 09:02:17;;;;;;;8.75;4.43;;;21.00;98.10;;;;;;5022554;28;20507;-59
2022/06/22 09:04:46;;;;;;;8.05;4.45;;;21.10;97.60;;;;;;5012201;28;20108;-57
2022/06/22 09:07:38;;;;;;;8.05;5.05;;;21.20;97.60;;;;;;5018028;28;20075;-60
2022/06/22 09:10:33;;;;;;;8.90;5.00;;;21.30;96.90;;;;;;5018696;28;20484;-57
2022/06/22 09:13:17;;;;;;;9.63;4.53;;;21.30;97.10;;;;;;5015459;28;20472;-58
2022/06/22 09:16:04;;;;;;;13.98;5.68;;;21.50;97.30;;;;;;5022143;28;20041;-60
2022/06/22 09:18:58;;;;;;;13.13;5.70;;;21.60;97.60;;;;;;5016069;28;20038;-58
2022/06/22 09:21:42;;;;;;;9.38;5.97;;;21.70;97.00;;;;;;5028992;28;20068;-58
2022/06/22 09:24:21;;;;;;;8.80;5.10;;;21.80;96.50;;;;;;5030768;28;20050;-57
2022/06/22 09:26:53;;;;;;;7.45;5.13;;;21.70;96.50;;;;;;5029655;28;20057;-58
2022/06/22 09:29:26;;;;;;;9.15;5.95;;;21.80;97.00;;;;;;5012749;28;20045;-61
2022/06/22 09:32:01;;;;;;;11.15;5.55;;;22.00;97.50;;;;;;5031555;28;20041;-59
2022/06/22 09:34:36;;;;;;;11.48;5.18;;;22.10;97.10;;;;;;5027304;28;20125;-59
2022/06/22 09:37:11;;;;;;;10.27;5.75;;;22.30;96.90;;;;;;5025207;28;20045;-57
2022/06/22 09:39:48;;;;;;;8.57;5.72;;;22.40;95.90;;;;;;5026924;28;20034;-58
2022/06/22 09:42:52;;;;;;;11.30;6.47;;;22.40;95.90;;;;;;5025965;28;20094;-60
2022/06/22 09:45:46;;;;;;;8.95;6.68;;;22.50;96.20;;;;;;5025458;28;20049;-58
2022/06/22 09:48:35;;;;;;;;;;;22.40;95.60;;;;;;5033684;28;20048;-59
2022/06/22 09:51:06;;;;;;;10.38;6.00;;;22.60;95.40;;;;;;5033773;28;19982;-60
2022/06/22 09:53:50;;;;;;;12.52;6.95;;;22.70;96.10;;;;;;5033954;28;20064;-59
2022/06/22 09:56:31;;;;;;;8.57;5.82;;;22.60;95.90;;;;;;5023462;28;20038;-58
2022/06/22 09:59:04;;;;;;;10.45;6.78;;;22.50;95.80;;;;;;5027665;28;20091;-61
2022/06/22 10:01:42;;;;;;;12.32;5.88;;;22.60;95.30;;;;;;5031196;28;20091;-61
2022/06/22 10:04:38;;;;;;;14.82;7.25;;;22.50;94.70;;;;;;5029906;28;20045;-57
2022/06/22 10:07:37;;;;;;;10.10;6.07;;;22.60;94.50;;;;;;5022667;28;20048;-61
2022/06/22 10:10:29;;;;;;;11.02;5.63;;;22.80;95.20;;;;;;5020477;28;20045;-61
2022/06/22 10:13:13;;;;;;;12.65;5.63;;;23.00;95.40;;;;;;5023665;28;20531;-60
2022/06/22 10:15:57;;;;;;;;;;;23.10;95.20;;;;;;5023912;28;20041;-60
2022/06/22 10:18:44;;;;;;;12.75;5.97;;;23.10;93.40;;;;;;5019188;28;19917;-60
2022/06/22 10:21:12;;;;;;;8.20;5.32;;;22.90;94.00;;;;;;5019157;28;20203;-59
2022/06/22 10:23:44;;;;;;;8.40;4.93;;;22.90;95.00;;;;;;5022444;28;20037;-60
2022/06/22 10:26:31;;;;;;;11.32;5.20;;;23.10;94.50;;;;;;5018746;28;20084;-60
2022/06/22 10:29:06;;;;;;;10.20;5.43;;;23.30;94.10;;;;;;5017809;28;20034;-60
2022/06/22 10:31:53;;;;;;;10.10;4.80;;;23.40;94.10;;;;;;5019445;28;20038;-59
2022/06/22 10:34:25;;;;;;;8.88;4.60;;;23.50;93.40;;;;;;5017993;28;20053;-60
2022/06/22 10:37:06;;;;;;;8.30;4.80;;;23.60;93.30;;;;;;5021650;28;20061;-58
2022/06/22 10:39:57;;;;;;;9.23;4.13;;;23.70;92.70;;;;;;5028020;28;20175;-60
2022/06/22 10:46:08;;;;;;;8.30;4.90;;;23.80;92.40;;;;;;5022849;28;20050;-60
2022/06/22 10:49:02;;;;;;;11.27;5.28;;;23.90;92.40;;;;;;5019523;28;20043;-60
2022/06/22 10:52:10;;;;;;;7.80;5.30;;;24.10;92.80;;;;;;5026390;28;20057;-59
2022/06/22 10:54:49;;;;;;;9.30;4.72;;;24.10;91.80;;;;;;5019688;28;20456;-58
2022/06/22 10:57:30;;;;;;;9.13;5.47;;;24.30;92.70;;;;;;5021830;28;20131;-61
2022/06/22 11:00:07;;;;;;;9.95;4.43;;;24.50;91.10;;;;;;5021026;28;20037;-60
2022/06/22 11:03:00;;;;;;;9.38;5.50;;;24.40;91.20;;;;;;5020123;28;20088;-60
2022/06/22 11:05:50;;;;;;;14.48;5.85;;;24.30;91.30;;;;;;5019984;28;20095;-60
2022/06/22 11:08:26;;;;;;;7.75;4.88;;;24.40;91.80;;;;;;5019618;28;20088;-60
2022/06/22 11:11:10;;;;;;;8.95;4.78;;;24.50;92.30;;;;;;5021202;28;20477;-61
2022/06/22 11:13:56;;;;;;;9.98;6.10;;;24.50;92.00;;;;;;5022048;28;20041;-61
2022/06/22 11:16:25;;;;;;;8.55;5.10;;;24.40;90.20;;;;;;5029548;28;20037;-59
2022/06/22 11:19:29;;;;;;;10.48;5.55;;;24.30;91.10;;;;;;5026197;28;20049;-61
2022/06/22 11:21:58;;;;;;;10.43;5.72;;;24.20;90.80;;;;;;5023903;28;20041;-58
2022/06/22 11:24:56;;;;;;;10.05;5.65;;;24.30;91.60;;;;;;5020303;28;20493;-61
2022/06/22 11:30:53;;;;;;;10.23;4.57;;;24.40;90.80;;;;;;4988963;28;20045;-60
2022/06/22 11:33:25;;;;;;;9.10;5.35;;;24.40;92.30;;;;;;5021621;28;20085;-60
2022/06/22 11:35:58;;;;;;;9.25;5.10;;;24.60;91.20;;;;;;5019134;28;20088;-60
2022/06/22 11:38:36;;;;;;;7.57;4.78;;;24.70;91.50;;;;;;5020635;28;20041;-61
2022/06/22 11:41:23;;;;;;;11.68;5.38;;;24.60;91.40;;;;;;5023211;28;20033;-59
2022/06/22 11:43:49;;;;;;;8.73;5.30;;;24.80;90.80;;;;;;5022830;28;20042;-61
2022/06/22 11:46:36;;;;;;;7.32;4.82;;;24.80;91.00;;;;;;5028272;28;20044;-60
2022/06/22 11:49:26;;;;;;;8.10;4.32;;;25.00;91.50;;;;;;5029520;28;20040;-59
2022/06/22 11:51:59;;;;;;;10.52;5.18;;;25.10;90.70;;;;;;5026743;28;20071;-60
2022/06/22 11:54:49;;;;;;;11.95;4.88;;;25.10;90.10;;;;;;5016217;28;20504;-60
2022/06/22 11:57:48;;;;;;;8.23;4.72;;;25.00;89.50;;;;;;5026856;28;20041;-59
2022/06/22 12:00:39;;;;;;;8.05;4.78;;;24.90;88.30;;;;;;5016782;28;20041;-60
2022/06/22 12:03:37;;;;;;;9.77;4.38;;;24.90;89.50;;;;;;5047814;22;20041;-50
2022/06/22 12:06:12;;;;;;;10.68;4.68;;;25.20;88.80;;;;;;5040723;28;20223;-51
2022/06/22 12:08:41;;;;;;;7.93;4.70;;;25.30;87.10;;;;;;5046459;28;20390;-50
2022/06/22 12:11:18;;;;;;;10.27;3.78;;;25.40;86.90;;;;;;5047441;28;20052;-49
2022/06/22 12:17:18;;;;;;;8.23;4.55;;;25.50;86.90;;;;;;5021797;28;20124;-50
2022/06/22 12:19:58;;;;;;;7.15;4.18;;;25.60;85.00;;;;;;5048801;28;20593;-52
2022/06/22 12:23:02;;;;;;;6.93;4.15;;;25.50;83.50;;;;;;5047042;28;20059;-51
2022/06/22 12:25:50;;;;;;;6.05;4.13;;;25.50;85.30;;;;;;5040415;28;20055;-51
2022/06/22 12:28:16;;;;;;;6.28;4.13;;;25.50;83.80;;;;;;5042109;28;20507;-51
2022/06/22 12:30:49;;;;;;;6.32;3.47;;;25.40;81.90;;;;;;5043720;28;20029;-54
2022/06/22 12:33:29;;;;;;;7.97;4.05;;;25.50;85.00;;;;;;5045527;28;20040;-51
2022/06/22 12:36:07;;;;;;;10.43;4.50;;;25.80;84.10;;;;;;5044041;28;20029;-51
2022/06/22 12:38:44;;;;;;;7.53;4.05;;;26.10;82.90;;;;;;5050759;28;20056;-54
2022/06/22 12:41:28;;;;;;;8.43;4.15;;;26.30;83.80;;;;;;5044887;28;20098;-50
2022/06/22 12:44:31;;;;;;;9.13;4.90;;;26.40;84.40;;;;;;5050718;28;20045;-52
2022/06/22 12:47:36;;;;;;;12.43;5.13;;;26.40;83.40;;;;;;5044514;28;20033;-52
2022/06/22 12:50:39;;;;;;;8.95;4.35;;;26.20;79.80;;;;;;4982869;28;20041;-51
2022/06/22 12:53:19;;;;;;;9.57;4.13;;;26.20;79.20;;;;;;5048609;28;20109;-55
2022/06/22 12:55:51;;;;;;;7.07;3.53;;;26.10;78.70;;;;;;5043586;28;20035;-50
2022/06/22 12:58:23;;;;;;;10.07;4.22;;;26.20;78.20;;;;;;5047185;28;20059;-50
2022/06/22 13:00:49;;;;;;;6.13;3.27;;;26.40;80.40;;;;;;5038791;28;20051;-51
2022/06/22 13:03:20;;;;;;;10.40;4.38;;;26.60;79.10;;;;;;5039821;28;20048;-55
2022/06/22 13:05:47;;;;;;;9.13;3.78;;;26.80;78.50;;;;;;5039133;28;20097;-51
2022/06/22 13:08:20;;;;;;;6.13;3.92;;;26.90;78.40;;;;;;5034151;28;20045;-52
2022/06/22 13:10:51;;;;;;;9.65;3.60;;;26.90;77.70;;;;;;5036640;28;20033;-56
2022/06/22 13:13:42;;;;;;;7.55;3.33;;;27.10;76.80;;;;;;5049835;28;20048;-54
2022/06/22 13:16:29;;;;;;;9.20;4.68;;;27.20;74.10;;;;;;5052061;28;20041;-57
2022/06/22 13:19:00;;;;;;;9.77;4.97;;;27.10;75.40;;;;;;5047193;28;20051;-54
2022/06/22 13:21:55;;;;;;;9.40;5.43;;;26.90;80.20;;;;;;5049338;28;20055;-59
2022/06/22 13:24:46;;;;;;;12.68;5.53;;;26.70;81.00;;;;;;5047767;28;20072;-55
2022/06/22 13:27:25;;;;;;;11.35;6.20;;;26.00;81.80;;;;;;5043070;28;20049;-57
2022/06/22 13:30:01;;;;;;;12.30;6.13;;;25.60;82.20;;;;;;5051591;28;20040;-55
2022/06/22 13:32:31;;;;;;;13.82;6.40;;;25.40;85.30;;;;;;5054949;28;20094;-56
2022/06/22 13:35:06;;;;;;;10.18;5.25;;;25.60;86.20;;;;;;5027653;28;20041;-57
2022/06/22 13:37:42;;;;;;;8.65;5.70;;;25.80;85.80;;;;;;5046889;28;20047;-55
2022/06/22 13:40:29;;;;;;;10.35;5.18;;;25.90;86.40;;;;;;5046090;28;20755;-55
2022/06/22 13:43:26;;;;;;;10.38;5.88;;;26.00;87.30;;;;;;5043112;28;20048;-56
2022/06/22 13:46:07;;;;;;;11.68;5.82;;;26.00;85.40;;;;;;5040131;28;20044;-56
2022/06/22 13:48:46;;;;;;;8.70;5.60;;;26.00;85.50;;;;;;5047523;28;20037;-56
2022/06/22 13:51:29;;;;;;;13.27;5.53;;;26.10;87.10;;;;;;5042020;28;20049;-53
2022/06/22 13:54:29;;;;;;;11.07;5.30;;;26.20;88.30;;;;;;5051538;28;20521;-59
2022/06/22 13:57:12;;;;;;;14.00;5.15;;;26.30;84.90;;;;;;5039939;28;20037;-55
2022/06/22 13:59:56;;;;;;;10.50;5.68;;;26.30;84.80;;;;;;5040846;28;20090;-59
2022/06/22 14:02:26;;;;;;;12.77;5.60;;;26.20;86.10;;;;;;5049590;28;20130;-57